createdAt,value
2022-09-30T00:01:53.392Z,99447.41
2022-09-30T00:04:22.218Z,99446.09
2022-09-30T00:06:49.786Z,99451.47
2022-09-30T00:09:16.661Z,99448.69
2022-09-30T00:11:43.510Z,99448.44
2022-09-30T00:14:16.292Z,99450.97
2022-09-30T00:16:43.677Z,99450.13
2022-09-30T00:19:10.508Z,99452.63
2022-09-30T00:21:37.201Z,99452.75
2022-09-30T00:24:05.182Z,99452.97
2022-09-30T00:26:32.410Z,99451.44
2022-09-30T00:29:00.749Z,99462.00
2022-09-30T00:31:30.851Z,99461.41
2022-09-30T00:34:11.177Z,99460.38
2022-09-30T00:36:44.744Z,99466.59
2022-09-30T00:39:16.058Z,99464.88
2022-09-30T00:41:43.301Z,99458.59
2022-09-30T00:44:47.189Z,99461.44
2022-09-30T00:47:41.684Z,99465.66
2022-09-30T00:50:23.086Z,99462.34
2022-09-30T00:52:55.713Z,99455.63
2022-09-30T00:55:33.824Z,99464.44
2022-09-30T00:58:03.690Z,99466.25
2022-09-30T01:00:30.370Z,99463.53
2022-09-30T01:02:57.194Z,99468.19
2022-09-30T01:05:26.424Z,99470.69
2022-09-30T01:07:56.390Z,99474.97
2022-09-30T01:10:22.741Z,99476.09
2022-09-30T01:12:49.128Z,99468.06
2022-09-30T01:15:15.875Z,99474.47
2022-09-30T01:17:57.808Z,99473.84
2022-09-30T01:20:47.681Z,99477.00
2022-09-30T01:23:32.297Z,99481.22
2022-09-30T01:26:18.884Z,99482.75
2022-09-30T01:29:06.733Z,99487.56
2022-09-30T01:31:43.909Z,99489.13
2022-09-30T01:34:22.031Z,99485.63
2022-09-30T01:37:13.438Z,99480.72
2022-09-30T01:40:07.776Z,99478.31
2022-09-30T01:42:42.448Z,99482.69
2022-09-30T01:45:33.999Z,99482.56
2022-09-30T01:48:12.565Z,99494.13
2022-09-30T01:51:07.475Z,99489.81
2022-09-30T01:54:00.913Z,99490.13
2022-09-30T01:56:30.761Z,99492.03
2022-09-30T01:59:06.551Z,99487.41
2022-09-30T02:01:39.269Z,99492.34
2022-09-30T02:04:24.123Z,99501.44
2022-09-30T02:06:56.367Z,99493.75
2022-09-30T02:09:29.471Z,99504.44
2022-09-30T02:11:59.930Z,99508.63
2022-09-30T02:14:37.449Z,99511.84
2022-09-30T02:17:15.519Z,99515.19
2022-09-30T02:19:48.538Z,99514.69
2022-09-30T02:22:20.071Z,99511.34
2022-09-30T02:24:52.940Z,99509.50
2022-09-30T02:27:28.390Z,99508.09
2022-09-30T02:30:01.556Z,99504.56
2022-09-30T02:32:34.122Z,99505.38
2022-09-30T02:35:06.473Z,99502.63
2022-09-30T02:37:39.033Z,99513.81
2022-09-30T02:40:12.133Z,99512.50
2022-09-30T02:42:39.561Z,99516.88
2022-09-30T02:45:16.230Z,99516.97
2022-09-30T02:48:26.167Z,99523.94
2022-09-30T02:51:05.577Z,99516.16
2022-09-30T02:53:51.212Z,99528.50
2022-09-30T02:56:42.661Z,99533.72
2022-09-30T02:59:09.491Z,99533.69
2022-09-30T03:01:41.762Z,99527.84
2022-09-30T03:04:12.434Z,99520.69
2022-09-30T03:06:39.511Z,99520.69
2022-09-30T03:09:06.034Z,99524.22
2022-09-30T03:11:32.553Z,99529.41
2022-09-30T03:14:01.651Z,99533.78
2022-09-30T03:16:46.799Z,99533.53
2022-09-30T03:19:31.458Z,99541.03
2022-09-30T03:22:19.122Z,99537.31
2022-09-30T03:24:53.305Z,99542.78
2022-09-30T03:27:32.433Z,99551.78
2022-09-30T03:30:13.597Z,99551.22
2022-09-30T03:33:05.973Z,99548.72
2022-09-30T03:36:04.801Z,99545.16
2022-09-30T03:38:47.461Z,99547.84
2022-09-30T03:41:47.739Z,99557.69
2022-09-30T03:44:38.901Z,99554.97
2022-09-30T03:47:09.589Z,99562.94
2022-09-30T03:49:41.850Z,99568.34
2022-09-30T03:52:10.878Z,99570.84
2022-09-30T03:54:52.921Z,99566.59
2022-09-30T03:57:19.274Z,99577.84
2022-09-30T03:59:45.712Z,99581.56
2022-09-30T04:02:13.258Z,99579.72
2022-09-30T04:04:41.020Z,99584.91
2022-09-30T04:07:08.899Z,99577.91
2022-09-30T04:09:35.322Z,99585.84
2022-09-30T04:12:01.762Z,99583.16
2022-09-30T04:14:28.143Z,99584.44
2022-09-30T04:16:54.497Z,99581.13
2022-09-30T04:19:21.208Z,99582.78
2022-09-30T04:21:47.681Z,99578.50
2022-09-30T04:24:14.364Z,99587.94
2022-09-30T04:26:40.706Z,99585.28
2022-09-30T04:29:07.041Z,99590.56
2022-09-30T04:31:33.447Z,99594.94
2022-09-30T04:33:59.805Z,99607.41
2022-09-30T04:36:26.268Z,99608.25
2022-09-30T04:38:53.445Z,99606.41
2022-09-30T04:41:20.538Z,99607.50
2022-09-30T04:43:48.144Z,99610.84
2022-09-30T04:46:18.519Z,99613.72
2022-09-30T04:48:45.879Z,99617.06
2022-09-30T04:51:17.689Z,99617.00
2022-09-30T04:53:44.356Z,99618.63
2022-09-30T04:56:11.375Z,99621.25
2022-09-30T04:58:38.276Z,99624.69
2022-09-30T05:01:07.081Z,99622.06
2022-09-30T05:03:34.382Z,99630.88
2022-09-30T05:06:01.248Z,99636.28
2022-09-30T05:08:27.636Z,99633.59
2022-09-30T05:10:59.283Z,99639.69
2022-09-30T05:13:29.599Z,99634.28
2022-09-30T05:15:56.318Z,99636.75
2022-09-30T05:18:25.891Z,99639.34
2022-09-30T05:20:53.596Z,99656.94
2022-09-30T05:23:20.791Z,99664.63
2022-09-30T05:25:47.713Z,99673.16
2022-09-30T05:28:14.875Z,99673.28
2022-09-30T05:30:45.269Z,99678.50
2022-09-30T05:33:13.076Z,99680.03
2022-09-30T05:35:41.424Z,99680.09
2022-09-30T05:38:09.595Z,99675.31
2022-09-30T05:40:39.643Z,99687.38
2022-09-30T05:43:07.186Z,99689.50
2022-09-30T05:45:34.352Z,99687.63
2022-09-30T05:48:01.239Z,99696.28
2022-09-30T05:50:28.031Z,99698.44
2022-09-30T05:52:54.394Z,99701.31
2022-09-30T05:55:22.538Z,99698.63
2022-09-30T05:57:50.725Z,99705.75
2022-09-30T06:00:18.604Z,99702.66
2022-09-30T06:02:45.001Z,99703.72
2022-09-30T06:05:12.542Z,99705.41
2022-09-30T06:07:39.618Z,99713.38
2022-09-30T06:10:11.054Z,99717.97
2022-09-30T06:12:38.462Z,99723.19
2022-09-30T06:15:05.781Z,99723.50
2022-09-30T06:17:32.207Z,99719.78
2022-09-30T06:19:58.530Z,99729.13
2022-09-30T06:22:25.269Z,99738.47
2022-09-30T06:24:55.020Z,99739.97
2022-09-30T06:27:22.052Z,99735.03
2022-09-30T06:29:49.199Z,99736.47
2022-09-30T06:32:15.562Z,99742.81
2022-09-30T06:34:41.895Z,99748.88
2022-09-30T06:37:08.237Z,99747.97
2022-09-30T06:39:34.608Z,99741.34
2022-09-30T06:42:00.979Z,99743.13
2022-09-30T06:44:27.361Z,99735.09
2022-09-30T06:46:54.458Z,99733.25
2022-09-30T06:49:21.305Z,99731.56
2022-09-30T06:51:47.756Z,99738.06
2022-09-30T06:54:14.131Z,99738.94
2022-09-30T06:56:40.516Z,99742.84
2022-09-30T06:59:07.012Z,99746.53
2022-09-30T07:01:37.081Z,99751.13
2022-09-30T07:04:09.290Z,99748.44
2022-09-30T07:06:35.646Z,99758.00
2022-09-30T07:09:01.998Z,99757.66
2022-09-30T07:11:28.383Z,99757.78
2022-09-30T07:13:55.392Z,99763.94
2022-09-30T07:16:21.828Z,99762.94
2022-09-30T07:18:48.260Z,99760.47
2022-09-30T07:21:16.251Z,99759.00
2022-09-30T07:23:48.064Z,99772.19
2022-09-30T07:26:16.878Z,99774.91
2022-09-30T07:28:44.003Z,99769.31
2022-09-30T07:31:35.588Z,99771.25
2022-09-30T07:34:07.061Z,99770.81
2022-09-30T07:36:37.537Z,99774.25
2022-09-30T07:39:07.089Z,99779.25
2022-09-30T07:41:35.913Z,99769.84
2022-09-30T07:44:02.905Z,99783.75
2022-09-30T07:46:32.648Z,99789.19
2022-09-30T07:49:05.518Z,99789.59
2022-09-30T07:51:37.251Z,99787.78
2022-09-30T07:54:06.714Z,99788.41
2022-09-30T07:56:51.262Z,99784.97
2022-09-30T07:59:20.861Z,99795.75
2022-09-30T08:01:48.518Z,99791.44
2022-09-30T08:04:15.785Z,99797.13
2022-09-30T08:06:47.992Z,99802.53
2022-09-30T08:09:16.849Z,99809.88
2022-09-30T08:11:43.323Z,99808.81
2022-09-30T08:14:15.487Z,99821.78
2022-09-30T08:16:42.098Z,99818.88
2022-09-30T08:19:14.151Z,99809.66
2022-09-30T08:21:40.509Z,99806.84
2022-09-30T08:24:06.937Z,99810.28
2022-09-30T08:26:33.302Z,99812.06
2022-09-30T08:29:00.701Z,99820.47
2022-09-30T08:31:28.000Z,99818.19
2022-09-30T08:33:54.626Z,99817.88
2022-09-30T08:36:23.525Z,99826.22
2022-09-30T08:38:50.665Z,99824.34
2022-09-30T08:41:33.803Z,99817.16
2022-09-30T08:44:20.381Z,99814.19
2022-09-30T08:46:58.388Z,99818.97
2022-09-30T08:49:49.701Z,99817.53
2022-09-30T08:52:48.363Z,99820.66
2022-09-30T08:55:21.870Z,99804.34
2022-09-30T08:57:48.823Z,99803.19
2022-09-30T09:00:18.034Z,99804.34
2022-09-30T09:02:54.972Z,99802.66
2022-09-30T09:05:50.040Z,99813.28
2022-09-30T09:08:40.103Z,99813.72
2022-09-30T09:11:21.047Z,99816.44
2022-09-30T09:13:55.448Z,99821.75
2022-09-30T09:16:42.222Z,99820.03
2022-09-30T09:19:11.382Z,99814.56
2022-09-30T09:21:54.789Z,99822.13
2022-09-30T09:24:25.249Z,99818.00
2022-09-30T09:26:54.511Z,99827.28
2022-09-30T09:29:39.386Z,99831.84
2022-09-30T09:32:17.507Z,99821.09
2022-09-30T09:34:46.048Z,99823.63
2022-09-30T09:37:58.435Z,99825.78
2022-09-30T09:40:42.999Z,99824.91
2022-09-30T09:43:24.992Z,99826.03
2022-09-30T09:46:22.081Z,99836.78
2022-09-30T09:48:50.829Z,99833.41
2022-09-30T09:51:32.699Z,99830.88
2022-09-30T09:54:01.157Z,99818.16
2022-09-30T09:56:32.396Z,99814.66
2022-09-30T09:59:25.738Z,99819.56
2022-09-30T10:01:54.157Z,99809.88
2022-09-30T10:04:33.047Z,99812.16
2022-09-30T10:07:14.814Z,99807.09
2022-09-30T10:09:43.098Z,99808.84
2022-09-30T10:12:09.378Z,99812.78
2022-09-30T10:14:46.017Z,99818.00
2022-09-30T10:17:26.745Z,99814.38
2022-09-30T10:19:57.858Z,99815.00
2022-09-30T10:22:32.437Z,99812.66
2022-09-30T10:25:13.857Z,99805.03
2022-09-30T10:27:56.672Z,99819.38
2022-09-30T10:30:44.686Z,99815.41
2022-09-30T10:33:23.571Z,99804.59
2022-09-30T10:35:54.221Z,99799.78
2022-09-30T10:38:22.870Z,99794.97
2022-09-30T10:40:51.084Z,99794.28
2022-09-30T10:43:33.861Z,99797.94
2022-09-30T10:46:24.543Z,99791.31
2022-09-30T10:48:51.727Z,99792.19
2022-09-30T10:51:34.021Z,99795.72
2022-09-30T10:54:01.195Z,99787.34
2022-09-30T10:56:45.545Z,99791.22
2022-09-30T10:59:23.656Z,99794.94
2022-09-30T11:01:58.032Z,99780.59
2022-09-30T11:04:37.730Z,99791.13
2022-09-30T11:07:16.961Z,99786.81
2022-09-30T11:09:55.075Z,99788.81
2022-09-30T11:12:32.557Z,99792.81
2022-09-30T11:15:37.442Z,99791.41
2022-09-30T11:18:21.400Z,99787.84
2022-09-30T11:20:56.848Z,99788.78
2022-09-30T11:23:44.355Z,99794.88
2022-09-30T11:26:36.965Z,99791.38
2022-09-30T11:29:15.280Z,99784.94
2022-09-30T11:31:57.683Z,99785.25
2022-09-30T11:34:26.915Z,99776.16
2022-09-30T11:37:05.516Z,99781.19
2022-09-30T11:39:56.817Z,99777.94
2022-09-30T11:42:36.484Z,99773.88
2022-09-30T11:45:29.320Z,99769.00
2022-09-30T11:48:18.111Z,99772.69
2022-09-30T11:51:09.664Z,99770.63
2022-09-30T11:54:05.299Z,99772.13
2022-09-30T11:56:53.191Z,99773.97
2022-09-30T11:59:26.552Z,99778.38
2022-09-30T12:01:56.724Z,99777.47
2022-09-30T12:04:34.581Z,99768.78
2022-09-30T12:07:11.464Z,99778.13
2022-09-30T12:09:47.961Z,99771.28
2022-09-30T12:12:18.746Z,99771.34
2022-09-30T12:14:48.086Z,99771.75
2022-09-30T12:17:26.960Z,99774.53
2022-09-30T12:19:56.915Z,99772.13
2022-09-30T12:22:40.998Z,99773.53
2022-09-30T12:25:13.656Z,99780.88
2022-09-30T12:27:46.947Z,99772.41
2022-09-30T12:30:20.399Z,99773.56
2022-09-30T12:33:19.827Z,99772.53
2022-09-30T12:36:03.792Z,99782.25
2022-09-30T12:39:07.403Z,99777.00
2022-09-30T12:41:48.590Z,99785.19
2022-09-30T12:44:33.581Z,99768.03
2022-09-30T12:47:21.465Z,99778.38
2022-09-30T12:49:48.965Z,99778.03
2022-09-30T12:52:19.642Z,99773.97
2022-09-30T12:55:00.487Z,99771.41
2022-09-30T12:57:32.406Z,99765.06
2022-09-30T13:00:14.758Z,99773.16
2022-09-30T13:02:44.342Z,99766.09
2022-09-30T13:05:29.427Z,99774.34
2022-09-30T13:08:05.024Z,99772.84
2022-09-30T13:10:45.501Z,99777.34
2022-09-30T13:13:23.811Z,99779.06
2022-09-30T13:16:03.126Z,99774.47
2022-09-30T13:18:32.307Z,99772.91
2022-09-30T13:21:04.845Z,99772.34
2022-09-30T13:23:49.268Z,99772.72
2022-09-30T13:26:27.842Z,99774.84
2022-09-30T13:29:18.873Z,99766.78
2022-09-30T13:31:45.211Z,99773.06
2022-09-30T13:34:21.432Z,99762.34
2022-09-30T13:36:50.770Z,99766.09
2022-09-30T13:39:23.144Z,99767.88
2022-09-30T13:42:07.300Z,99770.28
2022-09-30T13:44:58.439Z,99767.28
2022-09-30T13:47:32.151Z,99767.94
2022-09-30T13:50:31.153Z,99771.03
2022-09-30T13:53:01.018Z,99767.09
2022-09-30T13:55:35.939Z,99767.84
2022-09-30T13:58:24.170Z,99764.69
2022-09-30T14:00:59.369Z,99761.63
2022-09-30T14:03:56.884Z,99761.16
2022-09-30T14:06:57.757Z,99762.44
2022-09-30T14:09:47.186Z,99756.78
2022-09-30T14:12:45.443Z,99756.53
2022-09-30T14:15:18.992Z,99752.31
2022-09-30T14:18:19.738Z,99754.66
2022-09-30T14:20:51.625Z,99753.25
2022-09-30T14:23:19.159Z,99753.03
2022-09-30T14:25:59.582Z,99756.66
2022-09-30T14:28:36.749Z,99755.00
2022-09-30T14:31:10.318Z,99747.66
2022-09-30T14:33:37.264Z,99754.25
2022-09-30T14:36:11.486Z,99750.25
2022-09-30T14:38:37.962Z,99743.63
2022-09-30T14:41:13.424Z,99741.91
2022-09-30T14:43:45.053Z,99742.06
2022-09-30T14:46:26.420Z,99740.06
2022-09-30T14:48:56.877Z,99732.69
2022-09-30T14:51:24.057Z,99737.38
2022-09-30T14:53:55.664Z,99734.16
2022-09-30T14:56:29.343Z,99732.53
2022-09-30T14:58:58.164Z,99733.69
2022-09-30T15:01:27.618Z,99729.09
2022-09-30T15:04:02.571Z,99723.22
2022-09-30T15:06:32.840Z,99711.34
2022-09-30T15:09:06.874Z,99711.81
2022-09-30T15:11:38.788Z,99714.56
2022-09-30T15:14:16.381Z,99715.59
2022-09-30T15:16:50.940Z,99722.63
2022-09-30T15:19:25.053Z,99727.00
2022-09-30T15:21:54.245Z,99729.34
2022-09-30T15:24:24.212Z,99716.34
2022-09-30T15:26:53.218Z,99714.28
2022-09-30T15:29:19.593Z,99711.50
2022-09-30T15:31:51.779Z,99709.13
2022-09-30T15:34:24.023Z,99718.81
2022-09-30T15:37:06.802Z,99708.88
2022-09-30T15:40:06.303Z,99709.28
2022-09-30T15:42:35.502Z,99703.28
2022-09-30T15:45:04.236Z,99704.69
2022-09-30T15:47:30.978Z,99715.44
2022-09-30T15:49:57.483Z,99714.19
2022-09-30T15:52:37.213Z,99704.69
2022-09-30T15:55:38.643Z,99711.19
2022-09-30T15:58:05.458Z,99710.84
2022-09-30T16:00:41.655Z,99716.44
2022-09-30T16:03:30.404Z,99714.97
2022-09-30T16:06:15.251Z,99716.91
2022-09-30T16:08:44.692Z,99710.88
2022-09-30T16:11:20.492Z,99719.69
2022-09-30T16:13:48.165Z,99717.31
2022-09-30T16:16:20.401Z,99718.00
2022-09-30T16:18:48.191Z,99720.41
2022-09-30T16:21:44.243Z,99721.06
2022-09-30T16:24:22.479Z,99720.47
2022-09-30T16:26:51.551Z,99718.34
2022-09-30T16:29:18.911Z,99725.25
2022-09-30T16:31:48.890Z,99724.66
2022-09-30T16:34:21.044Z,99723.69
2022-09-30T16:36:47.563Z,99732.91
2022-09-30T16:39:15.870Z,99728.38
2022-09-30T16:41:42.938Z,99731.53
2022-09-30T16:44:10.150Z,99732.31
2022-09-30T16:46:37.157Z,99740.34
2022-09-30T16:49:15.011Z,99739.59
2022-09-30T16:51:42.061Z,99736.63
2022-09-30T16:54:09.115Z,99735.50
2022-09-30T16:56:35.724Z,99741.34
2022-09-30T16:59:02.385Z,99745.59
2022-09-30T17:01:29.217Z,99737.06
2022-09-30T17:03:57.138Z,99737.75
2022-09-30T17:06:29.730Z,99743.81
2022-09-30T17:08:57.003Z,99744.50
2022-09-30T17:11:31.064Z,99748.81
2022-09-30T17:13:58.001Z,99749.66
2022-09-30T17:16:25.465Z,99752.03
2022-09-30T17:18:52.454Z,99756.03
2022-09-30T17:21:24.212Z,99756.53
2022-09-30T17:23:51.449Z,99757.06
2022-09-30T17:26:18.435Z,99759.28
2022-09-30T17:28:45.218Z,99762.81
2022-09-30T17:31:11.894Z,99765.03
2022-09-30T17:33:40.462Z,99773.47
2022-09-30T17:36:13.150Z,99772.75
2022-09-30T17:38:40.369Z,99777.91
2022-09-30T17:41:28.502Z,99780.44
2022-09-30T17:43:54.825Z,99786.00
2022-09-30T17:46:23.423Z,99784.75
2022-09-30T17:48:54.692Z,99789.50
2022-09-30T17:51:21.087Z,99794.53
2022-09-30T17:53:48.103Z,99801.28
2022-09-30T17:56:19.292Z,99803.03
2022-09-30T17:58:47.646Z,99804.31
2022-09-30T18:01:15.396Z,99798.59
2022-09-30T18:03:41.790Z,99806.28
2022-09-30T18:06:08.221Z,99815.66
2022-09-30T18:08:35.692Z,99811.00
2022-09-30T18:11:02.691Z,99820.66
2022-09-30T18:13:29.597Z,99815.75
2022-09-30T18:15:59.062Z,99811.00
2022-09-30T18:18:25.472Z,99809.41
2022-09-30T18:20:51.990Z,99807.47
2022-09-30T18:23:18.955Z,99809.19
2022-09-30T18:25:49.647Z,99791.72
2022-09-30T18:28:16.791Z,99789.41
2022-09-30T18:30:43.697Z,99797.78
2022-09-30T18:33:10.919Z,99793.16
2022-09-30T18:35:39.285Z,99792.41
2022-09-30T18:38:06.783Z,99793.53
2022-09-30T18:40:33.592Z,99793.59
2022-09-30T18:43:02.605Z,99795.06
2022-09-30T18:45:31.364Z,99791.00
2022-09-30T18:47:59.804Z,99800.81
2022-09-30T18:50:28.308Z,99805.66
2022-09-30T18:52:55.880Z,99810.25
2022-09-30T18:55:22.805Z,99809.91
2022-09-30T18:57:50.409Z,99812.81
2022-09-30T19:00:17.809Z,99816.03
2022-09-30T19:02:44.680Z,99813.56
2022-09-30T19:05:12.979Z,99817.03
2022-09-30T19:07:39.426Z,99814.53
2022-09-30T19:10:09.948Z,99808.50
2022-09-30T19:12:37.813Z,99798.94
2022-09-30T19:15:05.815Z,99799.09
2022-09-30T19:17:32.926Z,99803.84
2022-09-30T19:20:00.624Z,99806.22
2022-09-30T19:22:28.279Z,99808.19
2022-09-30T19:24:54.849Z,99815.53
2022-09-30T19:27:23.324Z,99819.22
2022-09-30T19:29:50.089Z,99823.56
2022-09-30T19:32:18.606Z,99817.50
2022-09-30T19:34:53.839Z,99820.84
2022-09-30T19:37:27.866Z,99834.13
2022-09-30T19:39:54.366Z,99835.75
2022-09-30T19:42:21.273Z,99845.50
2022-09-30T19:44:47.709Z,99846.56
2022-09-30T19:47:14.076Z,99846.13
2022-09-30T19:49:40.422Z,99844.41
2022-09-30T19:52:17.709Z,99846.50
2022-09-30T19:54:47.023Z,99841.38
2022-09-30T19:57:13.573Z,99854.63
2022-09-30T19:59:39.928Z,99860.66
2022-09-30T20:02:06.692Z,99861.19
2022-09-30T20:04:34.209Z,99860.47
2022-09-30T20:07:01.365Z,99856.19
2022-09-30T20:09:27.704Z,99856.56
2022-09-30T20:11:54.048Z,99853.44
2022-09-30T20:14:39.020Z,99837.22
2022-09-30T20:17:05.407Z,99844.63
2022-09-30T20:19:31.755Z,99837.97
2022-09-30T20:21:58.247Z,99818.03
2022-09-30T20:24:25.941Z,99829.41
2022-09-30T20:26:52.535Z,99819.97
2022-09-30T20:29:20.565Z,99834.19
2022-09-30T20:31:48.146Z,99833.75
2022-09-30T20:34:16.176Z,99835.53
2022-09-30T20:36:43.347Z,99834.38
2022-09-30T20:39:10.975Z,99837.13
2022-09-30T20:41:39.655Z,99842.13
2022-09-30T20:44:13.852Z,99845.59
2022-09-30T20:46:41.473Z,99840.78
2022-09-30T20:49:07.913Z,99855.78
2022-09-30T20:51:34.599Z,99858.59
2022-09-30T20:54:01.403Z,99857.06
2022-09-30T20:56:44.091Z,99869.44
2022-09-30T20:59:16.996Z,99870.53
2022-09-30T21:01:43.437Z,99860.13
2022-09-30T21:04:09.922Z,99864.25
2022-09-30T21:06:36.250Z,99860.03
2022-09-30T21:09:03.442Z,99856.84
2022-09-30T21:11:29.999Z,99860.28
2022-09-30T21:13:56.695Z,99860.88
2022-09-30T21:16:27.244Z,99855.75
2022-09-30T21:18:53.968Z,99851.38
2022-09-30T21:21:22.823Z,99839.06
2022-09-30T21:23:59.205Z,99838.50
2022-09-30T21:26:26.613Z,99830.59
2022-09-30T21:28:52.952Z,99835.19
2022-09-30T21:31:27.394Z,99831.84
2022-09-30T21:33:56.433Z,99821.28
2022-09-30T21:36:23.519Z,99825.94
2022-09-30T21:38:50.781Z,99818.31
2022-09-30T21:41:18.060Z,99813.97
2022-09-30T21:43:44.472Z,99813.81
2022-09-30T21:46:13.345Z,99820.94
2022-09-30T21:48:39.950Z,99813.22
2022-09-30T21:51:07.376Z,99812.53
2022-09-30T21:53:34.246Z,99815.44
2022-09-30T21:56:02.475Z,99814.25
2022-09-30T21:58:31.635Z,99817.81
2022-09-30T22:01:07.661Z,99807.47
2022-09-30T22:03:37.856Z,99806.00
2022-09-30T22:06:07.432Z,99808.88
2022-09-30T22:08:36.275Z,99815.75
2022-09-30T22:11:08.031Z,99811.78
2022-09-30T22:13:34.603Z,99818.91
2022-09-30T22:16:06.318Z,99814.72
2022-09-30T22:18:33.072Z,99823.91
2022-09-30T22:21:14.049Z,99812.47
2022-09-30T22:23:40.892Z,99821.63
2022-09-30T22:26:13.938Z,99817.13
2022-09-30T22:28:40.356Z,99824.88
2022-09-30T22:31:19.360Z,99823.38
2022-09-30T22:34:10.256Z,99813.00
2022-09-30T22:36:55.535Z,99817.28
2022-09-30T22:39:22.690Z,99800.75
2022-09-30T22:41:50.746Z,99804.44
2022-09-30T22:44:17.857Z,99799.66
2022-09-30T22:46:44.664Z,99791.84
2022-09-30T22:49:11.852Z,99789.03
2022-09-30T22:51:38.874Z,99791.66
2022-09-30T22:54:05.755Z,99799.31
2022-09-30T22:56:32.343Z,99799.97
2022-09-30T22:58:59.495Z,99812.63
2022-09-30T23:01:28.303Z,99812.16
2022-09-30T23:03:55.719Z,99809.56
2022-09-30T23:06:24.283Z,99802.66
2022-09-30T23:08:51.719Z,99798.22
2022-09-30T23:11:18.887Z,99796.50
2022-09-30T23:13:46.406Z,99802.41
2022-09-30T23:16:14.313Z,99798.06
2022-09-30T23:18:41.130Z,99795.44
2022-09-30T23:21:11.476Z,99799.22
2022-09-30T23:23:39.103Z,99797.63
2022-09-30T23:26:13.279Z,99787.97
2022-09-30T23:28:41.198Z,99794.84
2022-09-30T23:31:10.439Z,99793.22
2022-09-30T23:33:39.547Z,99785.81
2022-09-30T23:36:07.438Z,99788.22
2022-09-30T23:38:34.043Z,99775.91
2022-09-30T23:41:00.470Z,99769.91
2022-09-30T23:43:30.092Z,99765.59
2022-09-30T23:45:57.840Z,99757.22
2022-09-30T23:48:24.708Z,99772.94
2022-09-30T23:50:51.711Z,99775.19
2022-09-30T23:53:18.325Z,99782.38
2022-09-30T23:55:55.552Z,99781.28
2022-09-30T23:58:23.381Z,99776.44
